sensor_id;sensor_type;location;lat;lon;timestamp;temperature;humidity
78898;DHT22;70344;44.736;37.800;2023-07-29T00:01:00;22.28;61.11
78898;DHT22;70344;44.736;37.800;2023-07-29T00:02:05;22.27;61.29
78898;DHT22;70344;44.736;37.800;2023-07-29T00:03:10;22.27;61.16
78898;DHT22;70344;44.736;37.800;2023-07-29T00:04:13;22.22;61.24
78898;DHT22;70344;44.736;37.800;2023-07-29T00:05:20;22.25;61.48
78898;DHT22;70344;44.736;37.800;2023-07-29T00:06:27;22.24;61.21
78898;DHT22;70344;44.736;37.800;2023-07-29T00:07:34;22.20;61.38
78898;DHT22;70344;44.736;37.800;2023-07-29T00:08:41;22.21;61.32
78898;DHT22;70344;44.736;37.800;2023-07-29T00:09:49;22.21;61.36
78898;DHT22;70344;44.736;37.800;2023-07-29T00:10:53;22.21;61.41
78898;DHT22;70344;44.736;37.800;2023-07-29T00:12:00;22.21;61.59
78898;DHT22;70344;44.736;37.800;2023-07-29T00:13:06;22.18;61.65
78898;DHT22;70344;44.736;37.800;2023-07-29T00:14:11;22.18;61.79
78898;DHT22;70344;44.736;37.800;2023-07-29T00:15:13;22.14;61.90
78898;DHT22;70344;44.736;37.800;2023-07-29T00:16:17;22.15;61.84
78898;DHT22;70344;44.736;37.800;2023-07-29T00:17:26;22.15;61.34
78898;DHT22;70344;44.736;37.800;2023-07-29T00:18:28;22.15;61.70
78898;DHT22;70344;44.736;37.800;2023-07-29T00:19:32;22.18;61.53
78898;DHT22;70344;44.736;37.800;2023-07-29T00:20:35;22.17;62.31
78898;DHT22;70344;44.736;37.800;2023-07-29T00:21:40;22.13;62.71
78898;DHT22;70344;44.736;37.800;2023-07-29T00:22:45;22.13;62.57
78898;DHT22;70344;44.736;37.800;2023-07-29T00:23:47;22.14;62.37
78898;DHT22;70344;44.736;37.800;2023-07-29T00:24:55;22.13;62.52
78898;DHT22;70344;44.736;37.800;2023-07-29T00:26:02;22.11;62.75
78898;DHT22;70344;44.736;37.800;2023-07-29T00:27:09;22.10;62.70
78898;DHT22;70344;44.736;37.800;2023-07-29T00:28:17;22.07;62.53
78898;DHT22;70344;44.736;37.800;2023-07-29T00:29:20;22.04;62.35
78898;DHT22;70344;44.736;37.800;2023-07-29T00:30:29;22.07;62.69
78898;DHT22;70344;44.736;37.800;2023-07-29T00:31:36;22.06;63.01
78898;DHT22;70344;44.736;37.800;2023-07-29T00:32:38;22.06;63.16
78898;DHT22;70344;44.736;37.800;2023-07-29T00:33:43;22.04;62.80
78898;DHT22;70344;44.736;37.800;2023-07-29T00:34:45;22.04;62.72
78898;DHT22;70344;44.736;37.800;2023-07-29T00:35:53;22.01;62.99
78898;DHT22;70344;44.736;37.800;2023-07-29T00:36:55;22.03;63.07
78898;DHT22;70344;44.736;37.800;2023-07-29T00:38:04;22.04;63.26
78898;DHT22;70344;44.736;37.800;2023-07-29T00:39:08;22.00;63.17
78898;DHT22;70344;44.736;37.800;2023-07-29T00:40:22;21.97;63.36
78898;DHT22;70344;44.736;37.800;2023-07-29T00:41:29;21.96;64.09
78898;DHT22;70344;44.736;37.800;2023-07-29T00:42:34;21.97;63.33
78898;DHT22;70344;44.736;37.800;2023-07-29T00:43:40;21.96;63.07
78898;DHT22;70344;44.736;37.800;2023-07-29T00:44:45;21.96;63.38
78898;DHT22;70344;44.736;37.800;2023-07-29T00:45:47;21.97;63.19
78898;DHT22;70344;44.736;37.800;2023-07-29T00:46:53;21.94;62.94
78898;DHT22;70344;44.736;37.800;2023-07-29T00:48:07;21.96;62.65
78898;DHT22;70344;44.736;37.800;2023-07-29T00:49:12;21.97;62.70
78898;DHT22;70344;44.736;37.800;2023-07-29T00:50:15;21.99;62.72
78898;DHT22;70344;44.736;37.800;2023-07-29T00:51:23;21.93;62.84
78898;DHT22;70344;44.736;37.800;2023-07-29T00:52:25;21.94;62.79
78898;DHT22;70344;44.736;37.800;2023-07-29T00:53:30;21.97;62.66
78898;DHT22;70344;44.736;37.800;2023-07-29T00:54:34;21.97;62.67
78898;DHT22;70344;44.736;37.800;2023-07-29T00:55:42;21.97;62.76
78898;DHT22;70344;44.736;37.800;2023-07-29T00:56:50;21.97;62.93
78898;DHT22;70344;44.736;37.800;2023-07-29T00:57:52;21.97;63.21
78898;DHT22;70344;44.736;37.800;2023-07-29T00:58:59;22.00;63.09
78898;DHT22;70344;44.736;37.800;2023-07-29T01:00:06;21.99;62.74
78898;DHT22;70344;44.736;37.800;2023-07-29T01:01:21;21.99;62.52
78898;DHT22;70344;44.736;37.800;2023-07-29T01:02:26;21.97;62.60
78898;DHT22;70344;44.736;37.800;2023-07-29T01:03:29;21.97;63.00
78898;DHT22;70344;44.736;37.800;2023-07-29T01:04:32;21.97;63.38
78898;DHT22;70344;44.736;37.800;2023-07-29T01:06:14;21.97;63.02
78898;DHT22;70344;44.736;37.800;2023-07-29T01:07:59;21.94;62.71
78898;DHT22;70344;44.736;37.800;2023-07-29T01:09:07;21.97;62.82
78898;DHT22;70344;44.736;37.800;2023-07-29T01:11:17;21.97;62.73
78898;DHT22;70344;44.736;37.800;2023-07-29T01:13:39;21.94;62.33
78898;DHT22;70344;44.736;37.800;2023-07-29T01:16:19;21.94;61.99
78898;DHT22;70344;44.736;37.800;2023-07-29T01:17:43;21.90;61.97
78898;DHT22;70344;44.736;37.800;2023-07-29T01:18:53;21.90;62.06
78898;DHT22;70344;44.736;37.800;2023-07-29T01:20:08;21.89;62.41
78898;DHT22;70344;44.736;37.800;2023-07-29T01:21:17;21.89;62.10
78898;DHT22;70344;44.736;37.800;2023-07-29T01:22:24;21.88;62.18
78898;DHT22;70344;44.736;37.800;2023-07-29T01:23:35;21.86;62.25
78898;DHT22;70344;44.736;37.800;2023-07-29T01:24:39;21.89;62.43
78898;DHT22;70344;44.736;37.800;2023-07-29T01:25:43;21.88;62.41
78898;DHT22;70344;44.736;37.800;2023-07-29T01:26:50;21.88;62.21
78898;DHT22;70344;44.736;37.800;2023-07-29T01:27:52;21.93;62.12
78898;DHT22;70344;44.736;37.800;2023-07-29T01:29:00;21.93;62.31
78898;DHT22;70344;44.736;37.800;2023-07-29T01:30:06;21.94;62.17
78898;DHT22;70344;44.736;37.800;2023-07-29T01:31:17;21.92;62.10
78898;DHT22;70344;44.736;37.800;2023-07-29T01:34:23;21.92;62.27
78898;DHT22;70344;44.736;37.800;2023-07-29T01:35:39;21.93;62.42
78898;DHT22;70344;44.736;37.800;2023-07-29T01:36:51;21.94;62.22
78898;DHT22;70344;44.736;37.800;2023-07-29T01:37:56;21.92;62.63
78898;DHT22;70344;44.736;37.800;2023-07-29T01:39:07;21.92;62.78
78898;DHT22;70344;44.736;37.800;2023-07-29T01:40:10;21.93;62.95
78898;DHT22;70344;44.736;37.800;2023-07-29T01:41:14;21.90;62.83
78898;DHT22;70344;44.736;37.800;2023-07-29T01:42:16;21.89;62.63
78898;DHT22;70344;44.736;37.800;2023-07-29T01:43:22;21.92;62.79
78898;DHT22;70344;44.736;37.800;2023-07-29T01:44:31;21.90;62.82
78898;DHT22;70344;44.736;37.800;2023-07-29T01:45:34;21.89;62.86
78898;DHT22;70344;44.736;37.800;2023-07-29T01:46:43;21.89;62.94
78898;DHT22;70344;44.736;37.800;2023-07-29T01:47:52;21.85;63.00
78898;DHT22;70344;44.736;37.800;2023-07-29T01:48:59;21.88;63.37
78898;DHT22;70344;44.736;37.800;2023-07-29T01:50:02;21.88;63.46
78898;DHT22;70344;44.736;37.800;2023-07-29T01:51:11;21.85;63.51
78898;DHT22;70344;44.736;37.800;2023-07-29T01:52:17;21.88;63.73
78898;DHT22;70344;44.736;37.800;2023-07-29T01:53:22;21.85;63.64
78898;DHT22;70344;44.736;37.800;2023-07-29T01:54:33;21.86;63.81
78898;DHT22;70344;44.736;37.800;2023-07-29T01:55:38;21.85;63.84
78898;DHT22;70344;44.736;37.800;2023-07-29T01:56:40;21.85;64.02
78898;DHT22;70344;44.736;37.800;2023-07-29T01:57:45;21.83;63.91
78898;DHT22;70344;44.736;37.800;2023-07-29T01:58:53;21.83;63.87
78898;DHT22;70344;44.736;37.800;2023-07-29T02:00:04;21.82;63.88
78898;DHT22;70344;44.736;37.800;2023-07-29T02:01:19;21.80;64.12
78898;DHT22;70344;44.736;37.800;2023-07-29T02:02:24;21.82;64.17
78898;DHT22;70344;44.736;37.800;2023-07-29T02:03:29;21.83;64.09
78898;DHT22;70344;44.736;37.800;2023-07-29T02:04:31;21.83;63.96
78898;DHT22;70344;44.736;37.800;2023-07-29T02:05:33;21.83;63.95
78898;DHT22;70344;44.736;37.800;2023-07-29T02:06:37;21.88;64.22
78898;DHT22;70344;44.736;37.800;2023-07-29T02:07:42;21.83;64.19
78898;DHT22;70344;44.736;37.800;2023-07-29T02:08:53;21.85;63.61
78898;DHT22;70344;44.736;37.800;2023-07-29T02:09:58;21.88;63.85
78898;DHT22;70344;44.736;37.800;2023-07-29T02:11:00;21.88;63.98
78898;DHT22;70344;44.736;37.800;2023-07-29T02:12:13;21.90;63.67
78898;DHT22;70344;44.736;37.800;2023-07-29T02:13:17;21.90;64.12
78898;DHT22;70344;44.736;37.800;2023-07-29T02:14:19;21.93;64.03
78898;DHT22;70344;44.736;37.800;2023-07-29T02:15:24;21.96;63.97
78898;DHT22;70344;44.736;37.800;2023-07-29T02:16:34;21.96;63.81
78898;DHT22;70344;44.736;37.800;2023-07-29T02:17:42;21.97;63.84
78898;DHT22;70344;44.736;37.800;2023-07-29T02:18:44;21.97;63.85
78898;DHT22;70344;44.736;37.800;2023-07-29T02:19:54;22.01;63.54
78898;DHT22;70344;44.736;37.800;2023-07-29T02:20:56;22.00;63.48
78898;DHT22;70344;44.736;37.800;2023-07-29T02:22:01;22.00;63.56
78898;DHT22;70344;44.736;37.800;2023-07-29T02:23:09;22.03;63.52
78898;DHT22;70344;44.736;37.800;2023-07-29T02:24:16;22.01;63.28
78898;DHT22;70344;44.736;37.800;2023-07-29T02:25:18;22.03;63.56
78898;DHT22;70344;44.736;37.800;2023-07-29T02:26:24;22.06;63.82
78898;DHT22;70344;44.736;37.800;2023-07-29T02:27:29;22.07;63.27
78898;DHT22;70344;44.736;37.800;2023-07-29T02:28:36;22.08;63.35
78898;DHT22;70344;44.736;37.800;2023-07-29T02:29:41;22.08;63.93
78898;DHT22;70344;44.736;37.800;2023-07-29T02:31:20;22.08;63.31
78898;DHT22;70344;44.736;37.800;2023-07-29T02:32:30;22.17;63.32
78898;DHT22;70344;44.736;37.800;2023-07-29T02:33:35;22.14;63.37
78898;DHT22;70344;44.736;37.800;2023-07-29T02:34:43;22.14;63.52
78898;DHT22;70344;44.736;37.800;2023-07-29T02:35:48;22.15;63.46
78898;DHT22;70344;44.736;37.800;2023-07-29T02:36:57;22.17;63.28
78898;DHT22;70344;44.736;37.800;2023-07-29T02:38:01;22.15;63.79
78898;DHT22;70344;44.736;37.800;2023-07-29T02:39:09;22.17;63.57
78898;DHT22;70344;44.736;37.800;2023-07-29T02:40:13;22.17;63.59
78898;DHT22;70344;44.736;37.800;2023-07-29T02:41:21;22.17;63.27
78898;DHT22;70344;44.736;37.800;2023-07-29T02:42:25;22.20;63.22
78898;DHT22;70344;44.736;37.800;2023-07-29T02:43:30;22.15;63.53
78898;DHT22;70344;44.736;37.800;2023-07-29T02:44:35;22.18;63.54
78898;DHT22;70344;44.736;37.800;2023-07-29T02:45:37;22.20;63.78
78898;DHT22;70344;44.736;37.800;2023-07-29T02:46:39;22.22;64.04
78898;DHT22;70344;44.736;37.800;2023-07-29T02:47:41;22.18;64.01
78898;DHT22;70344;44.736;37.800;2023-07-29T02:48:46;22.21;63.86
78898;DHT22;70344;44.736;37.800;2023-07-29T02:49:54;22.21;64.02
78898;DHT22;70344;44.736;37.800;2023-07-29T02:51:02;22.17;63.97
78898;DHT22;70344;44.736;37.800;2023-07-29T02:52:07;22.17;63.99
78898;DHT22;70344;44.736;37.800;2023-07-29T02:53:11;22.14;64.20
78898;DHT22;70344;44.736;37.800;2023-07-29T02:54:13;22.15;63.97
78898;DHT22;70344;44.736;37.800;2023-07-29T02:55:20;22.15;64.32
78898;DHT22;70344;44.736;37.800;2023-07-29T02:56:25;22.15;64.38
78898;DHT22;70344;44.736;37.800;2023-07-29T02:57:33;22.15;64.09
78898;DHT22;70344;44.736;37.800;2023-07-29T02:58:36;22.15;64.17
78898;DHT22;70344;44.736;37.800;2023-07-29T02:59:45;22.15;64.62
78898;DHT22;70344;44.736;37.800;2023-07-29T03:00:50;22.13;64.43
78898;DHT22;70344;44.736;37.800;2023-07-29T03:01:55;22.08;64.82
78898;DHT22;70344;44.736;37.800;2023-07-29T03:03:00;22.08;64.76
78898;DHT22;70344;44.736;37.800;2023-07-29T03:04:05;22.04;65.37
78898;DHT22;70344;44.736;37.800;2023-07-29T03:05:12;22.03;65.07
78898;DHT22;70344;44.736;37.800;2023-07-29T03:06:14;22.03;65.01
78898;DHT22;70344;44.736;37.800;2023-07-29T03:07:25;22.04;64.99
78898;DHT22;70344;44.736;37.800;2023-07-29T03:08:30;22.01;64.65
78898;DHT22;70344;44.736;37.800;2023-07-29T03:09:40;22.00;64.41
78898;DHT22;70344;44.736;37.800;2023-07-29T03:10:51;22.03;64.81
78898;DHT22;70344;44.736;37.800;2023-07-29T03:11:53;22.03;65.27
78898;DHT22;70344;44.736;37.800;2023-07-29T03:13:04;22.01;65.01
78898;DHT22;70344;44.736;37.800;2023-07-29T03:14:06;22.00;65.05
78898;DHT22;70344;44.736;37.800;2023-07-29T03:15:11;21.96;65.24
78898;DHT22;70344;44.736;37.800;2023-07-29T03:16:19;21.99;65.62
78898;DHT22;70344;44.736;37.800;2023-07-29T03:17:34;21.99;65.48
78898;DHT22;70344;44.736;37.800;2023-07-29T03:18:40;21.99;65.57
78898;DHT22;70344;44.736;37.800;2023-07-29T03:19:48;21.97;65.86
78898;DHT22;70344;44.736;37.800;2023-07-29T03:20:50;21.96;65.89
78898;DHT22;70344;44.736;37.800;2023-07-29T03:21:55;21.96;66.09
78898;DHT22;70344;44.736;37.800;2023-07-29T03:22:57;21.93;66.34
78898;DHT22;70344;44.736;37.800;2023-07-29T03:24:05;21.94;66.20
78898;DHT22;70344;44.736;37.800;2023-07-29T03:25:09;21.93;65.83
78898;DHT22;70344;44.736;37.800;2023-07-29T03:26:11;21.92;65.87
78898;DHT22;70344;44.736;37.800;2023-07-29T03:27:16;21.92;65.82
78898;DHT22;70344;44.736;37.800;2023-07-29T03:28:18;21.93;65.94
78898;DHT22;70344;44.736;37.800;2023-07-29T03:29:21;21.94;65.89
78898;DHT22;70344;44.736;37.800;2023-07-29T03:30:26;21.96;66.06
78898;DHT22;70344;44.736;37.800;2023-07-29T03:31:33;21.97;65.78
78898;DHT22;70344;44.736;37.800;2023-07-29T03:32:44;21.96;65.81
78898;DHT22;70344;44.736;37.800;2023-07-29T03:33:47;21.99;66.29
78898;DHT22;70344;44.736;37.800;2023-07-29T03:34:53;21.99;66.02
78898;DHT22;70344;44.736;37.800;2023-07-29T03:35:58;22.00;66.09
78898;DHT22;70344;44.736;37.800;2023-07-29T03:37:01;22.03;66.68
78898;DHT22;70344;44.736;37.800;2023-07-29T03:38:08;22.03;66.59
78898;DHT22;70344;44.736;37.800;2023-07-29T03:39:10;22.03;66.40
78898;DHT22;70344;44.736;37.800;2023-07-29T03:40:18;22.07;66.45
78898;DHT22;70344;44.736;37.800;2023-07-29T03:41:23;22.07;66.35
78898;DHT22;70344;44.736;37.800;2023-07-29T03:42:28;22.08;66.66
78898;DHT22;70344;44.736;37.800;2023-07-29T03:43:30;22.08;66.83
78898;DHT22;70344;44.736;37.800;2023-07-29T03:44:38;22.11;67.09
78898;DHT22;70344;44.736;37.800;2023-07-29T03:45:41;22.10;66.99
78898;DHT22;70344;44.736;37.800;2023-07-29T03:46:44;22.14;67.02
78898;DHT22;70344;44.736;37.800;2023-07-29T03:47:52;22.13;66.83
78898;DHT22;70344;44.736;37.800;2023-07-29T03:48:59;22.17;66.85
78898;DHT22;70344;44.736;37.800;2023-07-29T03:50:05;22.17;66.94
78898;DHT22;70344;44.736;37.800;2023-07-29T03:51:13;22.21;66.81
78898;DHT22;70344;44.736;37.800;2023-07-29T03:52:15;22.22;66.55
78898;DHT22;70344;44.736;37.800;2023-07-29T03:53:20;22.25;66.60
78898;DHT22;70344;44.736;37.800;2023-07-29T03:54:29;22.27;66.51
78898;DHT22;70344;44.736;37.800;2023-07-29T03:55:32;22.31;66.45
78898;DHT22;70344;44.736;37.800;2023-07-29T03:56:40;22.32;66.75
78898;DHT22;70344;44.736;37.800;2023-07-29T03:57:48;22.37;66.77
78898;DHT22;70344;44.736;37.800;2023-07-29T03:59:04;22.40;66.90
78898;DHT22;70344;44.736;37.800;2023-07-29T04:00:12;22.40;65.92
78898;DHT22;70344;44.736;37.800;2023-07-29T04:01:18;22.45;65.62
78898;DHT22;70344;44.736;37.800;2023-07-29T04:02:24;22.48;64.83
78898;DHT22;70344;44.736;37.800;2023-07-29T04:03:46;22.49;65.53
78898;DHT22;70344;44.736;37.800;2023-07-29T04:04:48;22.47;64.88
78898;DHT22;70344;44.736;37.800;2023-07-29T04:05:55;22.52;63.65
78898;DHT22;70344;44.736;37.800;2023-07-29T04:07:00;22.55;63.63
78898;DHT22;70344;44.736;37.800;2023-07-29T04:08:04;22.59;63.85
78898;DHT22;70344;44.736;37.800;2023-07-29T04:09:09;22.63;64.35
78898;DHT22;70344;44.736;37.800;2023-07-29T04:10:15;22.65;64.70
78898;DHT22;70344;44.736;37.800;2023-07-29T04:11:21;22.72;63.93
78898;DHT22;70344;44.736;37.800;2023-07-29T04:12:28;22.73;64.42
78898;DHT22;70344;44.736;37.800;2023-07-29T04:13:35;22.75;64.39
78898;DHT22;70344;44.736;37.800;2023-07-29T04:14:39;22.79;64.36
78898;DHT22;70344;44.736;37.800;2023-07-29T04:15:44;22.80;64.54
78898;DHT22;70344;44.736;37.800;2023-07-29T04:16:50;22.84;64.27
78898;DHT22;70344;44.736;37.800;2023-07-29T04:18:00;22.87;64.41
78898;DHT22;70344;44.736;37.800;2023-07-29T04:19:06;22.92;64.81
78898;DHT22;70344;44.736;37.800;2023-07-29T04:20:10;22.94;64.91
78898;DHT22;70344;44.736;37.800;2023-07-29T04:21:17;22.99;64.68
78898;DHT22;70344;44.736;37.800;2023-07-29T04:22:22;22.96;64.36
78898;DHT22;70344;44.736;37.800;2023-07-29T04:23:25;22.97;63.33
78898;DHT22;70344;44.736;37.800;2023-07-29T04:24:27;23.01;63.16
78898;DHT22;70344;44.736;37.800;2023-07-29T04:25:31;23.04;63.64
78898;DHT22;70344;44.736;37.800;2023-07-29T04:26:38;23.08;63.75
78898;DHT22;70344;44.736;37.800;2023-07-29T04:27:48;23.14;63.85
78898;DHT22;70344;44.736;37.800;2023-07-29T04:28:57;23.19;64.14
78898;DHT22;70344;44.736;37.800;2023-07-29T04:30:05;23.24;64.38
78898;DHT22;70344;44.736;37.800;2023-07-29T04:31:10;23.25;63.77
78898;DHT22;70344;44.736;37.800;2023-07-29T04:32:14;23.31;63.52
78898;DHT22;70344;44.736;37.800;2023-07-29T04:33:18;23.35;63.70
78898;DHT22;70344;44.736;37.800;2023-07-29T04:34:21;23.38;63.69
78898;DHT22;70344;44.736;37.800;2023-07-29T04:35:23;23.41;63.21
78898;DHT22;70344;44.736;37.800;2023-07-29T04:36:32;23.44;63.11
78898;DHT22;70344;44.736;37.800;2023-07-29T04:37:35;23.49;63.08
78898;DHT22;70344;44.736;37.800;2023-07-29T04:38:38;23.53;63.05
78898;DHT22;70344;44.736;37.800;2023-07-29T04:39:48;23.59;63.23
78898;DHT22;70344;44.736;37.800;2023-07-29T04:40:51;23.62;62.58
78898;DHT22;70344;44.736;37.800;2023-07-29T04:41:57;23.63;62.81
78898;DHT22;70344;44.736;37.800;2023-07-29T04:43:02;23.67;62.66
78898;DHT22;70344;44.736;37.800;2023-07-29T04:44:04;23.70;62.80
78898;DHT22;70344;44.736;37.800;2023-07-29T04:45:09;23.74;61.84
78898;DHT22;70344;44.736;37.800;2023-07-29T04:46:15;23.79;62.33
78898;DHT22;70344;44.736;37.800;2023-07-29T04:47:17;23.83;62.25
78898;DHT22;70344;44.736;37.800;2023-07-29T04:48:28;23.88;62.18
78898;DHT22;70344;44.736;37.800;2023-07-29T04:49:30;23.94;62.14
78898;DHT22;70344;44.736;37.800;2023-07-29T04:50:32;24.00;62.12
78898;DHT22;70344;44.736;37.800;2023-07-29T04:51:38;24.12;61.28
78898;DHT22;70344;44.736;37.800;2023-07-29T04:52:44;24.22;61.02
78898;DHT22;70344;44.736;37.800;2023-07-29T04:53:52;24.31;60.42
78898;DHT22;70344;44.736;37.800;2023-07-29T04:55:00;24.40;59.77
78898;DHT22;70344;44.736;37.800;2023-07-29T04:56:07;24.49;59.84
78898;DHT22;70344;44.736;37.800;2023-07-29T04:57:09;24.53;59.57
78898;DHT22;70344;44.736;37.800;2023-07-29T04:58:16;24.64;59.42
78898;DHT22;70344;44.736;37.800;2023-07-29T04:59:21;24.80;59.48
78898;DHT22;70344;44.736;37.800;2023-07-29T05:00:24;24.91;59.10
78898;DHT22;70344;44.736;37.800;2023-07-29T05:01:31;25.01;59.34
78898;DHT22;70344;44.736;37.800;2023-07-29T05:02:39;25.12;57.09
78898;DHT22;70344;44.736;37.800;2023-07-29T05:03:46;25.24;56.51
78898;DHT22;70344;44.736;37.800;2023-07-29T05:04:48;25.33;56.38
78898;DHT22;70344;44.736;37.800;2023-07-29T05:05:52;25.41;56.21
78898;DHT22;70344;44.736;37.800;2023-07-29T05:06:59;25.53;56.22
78898;DHT22;70344;44.736;37.800;2023-07-29T05:08:02;25.67;56.67
78898;DHT22;70344;44.736;37.800;2023-07-29T05:09:17;25.84;55.91
78898;DHT22;70344;44.736;37.800;2023-07-29T05:10:22;25.97;54.92
78898;DHT22;70344;44.736;37.800;2023-07-29T05:11:30;26.09;53.34
78898;DHT22;70344;44.736;37.800;2023-07-29T05:12:32;26.11;53.59
78898;DHT22;70344;44.736;37.800;2023-07-29T05:13:37;26.28;53.96
78898;DHT22;70344;44.736;37.800;2023-07-29T05:14:48;26.40;53.48
78898;DHT22;70344;44.736;37.800;2023-07-29T05:15:59;26.52;53.76
78898;DHT22;70344;44.736;37.800;2023-07-29T05:17:06;26.63;53.30
78898;DHT22;70344;44.736;37.800;2023-07-29T05:18:20;26.73;52.37
78898;DHT22;70344;44.736;37.800;2023-07-29T05:19:22;26.86;53.05
78898;DHT22;70344;44.736;37.800;2023-07-29T05:20:27;26.95;52.22
78898;DHT22;70344;44.736;37.800;2023-07-29T05:21:37;27.06;51.83
78898;DHT22;70344;44.736;37.800;2023-07-29T05:22:43;27.16;51.95
78898;DHT22;70344;44.736;37.800;2023-07-29T05:23:50;27.29;52.45
78898;DHT22;70344;44.736;37.800;2023-07-29T05:24:55;27.36;51.55
78898;DHT22;70344;44.736;37.800;2023-07-29T05:25:57;27.47;51.01
78898;DHT22;70344;44.736;37.800;2023-07-29T05:27:02;27.60;51.55
78898;DHT22;70344;44.736;37.800;2023-07-29T05:28:07;27.74;49.45
78898;DHT22;70344;44.736;37.800;2023-07-29T05:29:14;27.87;48.07
78898;DHT22;70344;44.736;37.800;2023-07-29T05:30:23;27.80;48.31
78898;DHT22;70344;44.736;37.800;2023-07-29T05:31:27;27.81;48.44
78898;DHT22;70344;44.736;37.800;2023-07-29T05:32:36;27.77;48.94
78898;DHT22;70344;44.736;37.800;2023-07-29T05:33:40;27.68;48.01
78898;DHT22;70344;44.736;37.800;2023-07-29T05:34:54;27.81;48.32
78898;DHT22;70344;44.736;37.800;2023-07-29T05:35:59;27.74;47.91
78898;DHT22;70344;44.736;37.800;2023-07-29T05:37:04;27.81;47.60
78898;DHT22;70344;44.736;37.800;2023-07-29T05:38:09;27.92;47.85
78898;DHT22;70344;44.736;37.800;2023-07-29T05:39:14;28.02;46.85
78898;DHT22;70344;44.736;37.800;2023-07-29T05:40:19;28.04;46.80
78898;DHT22;70344;44.736;37.800;2023-07-29T05:41:22;27.95;45.77
78898;DHT22;70344;44.736;37.800;2023-07-29T05:42:32;27.81;45.93
78898;DHT22;70344;44.736;37.800;2023-07-29T05:43:37;27.92;46.16
78898;DHT22;70344;44.736;37.800;2023-07-29T05:44:43;27.90;45.89
78898;DHT22;70344;44.736;37.800;2023-07-29T05:45:45;27.85;45.47
78898;DHT22;70344;44.736;37.800;2023-07-29T05:46:47;27.77;45.99
78898;DHT22;70344;44.736;37.800;2023-07-29T05:47:55;27.68;45.91
78898;DHT22;70344;44.736;37.800;2023-07-29T05:49:00;27.70;45.53
78898;DHT22;70344;44.736;37.800;2023-07-29T05:50:08;27.67;45.42
78898;DHT22;70344;44.736;37.800;2023-07-29T05:51:10;27.63;44.68
78898;DHT22;70344;44.736;37.800;2023-07-29T05:52:15;27.61;45.45
78898;DHT22;70344;44.736;37.800;2023-07-29T05:53:20;27.73;45.48
78898;DHT22;70344;44.736;37.800;2023-07-29T05:54:24;27.91;45.84
78898;DHT22;70344;44.736;37.800;2023-07-29T05:55:29;27.95;45.50
78898;DHT22;70344;44.736;37.800;2023-07-29T05:56:33;28.06;45.21
78898;DHT22;70344;44.736;37.800;2023-07-29T05:57:40;28.25;43.25
78898;DHT22;70344;44.736;37.800;2023-07-29T05:58:46;28.16;43.61
78898;DHT22;70344;44.736;37.800;2023-07-29T05:59:49;28.15;42.24
78898;DHT22;70344;44.736;37.800;2023-07-29T06:00:51;28.06;44.34
78898;DHT22;70344;44.736;37.800;2023-07-29T06:01:54;28.01;43.98
78898;DHT22;70344;44.736;37.800;2023-07-29T06:02:59;27.90;43.98
78898;DHT22;70344;44.736;37.800;2023-07-29T06:04:04;27.82;45.03
78898;DHT22;70344;44.736;37.800;2023-07-29T06:05:06;27.76;44.06
78898;DHT22;70344;44.736;37.800;2023-07-29T06:06:11;27.68;44.07
78898;DHT22;70344;44.736;37.800;2023-07-29T06:07:13;27.60;44.35
78898;DHT22;70344;44.736;37.800;2023-07-29T06:08:18;27.51;44.34
78898;DHT22;70344;44.736;37.800;2023-07-29T06:09:20;27.64;43.34
78898;DHT22;70344;44.736;37.800;2023-07-29T06:10:25;27.81;43.74
78898;DHT22;70344;44.736;37.800;2023-07-29T06:11:28;28.02;43.08
78898;DHT22;70344;44.736;37.800;2023-07-29T06:12:30;28.23;42.90
78898;DHT22;70344;44.736;37.800;2023-07-29T06:13:35;28.40;41.66
78898;DHT22;70344;44.736;37.800;2023-07-29T06:14:44;28.47;42.18
78898;DHT22;70344;44.736;37.800;2023-07-29T06:15:46;28.60;42.15
78898;DHT22;70344;44.736;37.800;2023-07-29T06:16:53;28.74;42.53
78898;DHT22;70344;44.736;37.800;2023-07-29T06:18:04;28.87;42.38
78898;DHT22;70344;44.736;37.800;2023-07-29T06:19:10;29.06;42.79
78898;DHT22;70344;44.736;37.800;2023-07-29T06:20:12;29.23;42.14
78898;DHT22;70344;44.736;37.800;2023-07-29T06:21:17;29.22;39.67
78898;DHT22;70344;44.736;37.800;2023-07-29T06:22:21;29.09;40.16
78898;DHT22;70344;44.736;37.800;2023-07-29T06:23:26;29.16;41.36
78898;DHT22;70344;44.736;37.800;2023-07-29T06:24:31;29.15;40.56
78898;DHT22;70344;44.736;37.800;2023-07-29T06:25:36;29.30;41.18
78898;DHT22;70344;44.736;37.800;2023-07-29T06:26:44;29.47;40.55
78898;DHT22;70344;44.736;37.800;2023-07-29T06:27:46;29.61;40.93
78898;DHT22;70344;44.736;37.800;2023-07-29T06:28:48;29.64;39.31
78898;DHT22;70344;44.736;37.800;2023-07-29T06:29:50;29.72;39.99
78898;DHT22;70344;44.736;37.800;2023-07-29T06:31:02;29.92;39.09
78898;DHT22;70344;44.736;37.800;2023-07-29T06:32:07;30.08;39.92
78898;DHT22;70344;44.736;37.800;2023-07-29T06:33:09;30.29;40.56
78898;DHT22;70344;44.736;37.800;2023-07-29T06:34:12;30.41;39.70
78898;DHT22;70344;44.736;37.800;2023-07-29T06:35:14;30.54;41.44
78898;DHT22;70344;44.736;37.800;2023-07-29T06:36:16;30.65;39.08
78898;DHT22;70344;44.736;37.800;2023-07-29T06:37:30;30.82;40.66
78898;DHT22;70344;44.736;37.800;2023-07-29T06:38:39;30.75;38.96
78898;DHT22;70344;44.736;37.800;2023-07-29T06:39:45;30.83;37.61
78898;DHT22;70344;44.736;37.800;2023-07-29T06:40:50;30.58;34.62
78898;DHT22;70344;44.736;37.800;2023-07-29T06:41:54;30.29;36.81
78898;DHT22;70344;44.736;37.800;2023-07-29T06:42:58;30.14;37.49
78898;DHT22;70344;44.736;37.800;2023-07-29T06:44:00;30.01;37.42
78898;DHT22;70344;44.736;37.800;2023-07-29T06:45:10;29.89;38.41
78898;DHT22;70344;44.736;37.800;2023-07-29T06:46:12;29.85;37.97
78898;DHT22;70344;44.736;37.800;2023-07-29T06:47:16;30.04;37.92
78898;DHT22;70344;44.736;37.800;2023-07-29T06:48:18;30.19;38.49
78898;DHT22;70344;44.736;37.800;2023-07-29T06:49:22;30.37;39.64
78898;DHT22;70344;44.736;37.800;2023-07-29T06:50:30;30.54;36.81
78898;DHT22;70344;44.736;37.800;2023-07-29T06:51:32;30.58;36.42
78898;DHT22;70344;44.736;37.800;2023-07-29T06:52:41;30.68;37.56
78898;DHT22;70344;44.736;37.800;2023-07-29T06:53:48;30.76;33.06
78898;DHT22;70344;44.736;37.800;2023-07-29T06:54:52;30.88;32.06
78898;DHT22;70344;44.736;37.800;2023-07-29T06:55:56;30.99;32.57
78898;DHT22;70344;44.736;37.800;2023-07-29T06:57:00;30.85;35.75